sensor_id;sensor_type;location;lat;lon;timestamp;P1;durP1;ratioP1;P2;durP2;ratioP2
20110;SDS011;10216;42.658;23.248;2023-04-29T00:00:59;1.30;;;1.20;;
20110;SDS011;10216;42.658;23.248;2023-04-29T00:03:24;1.30;;;0.90;;
20110;SDS011;10216;42.658;23.248;2023-04-29T00:05:52;0.77;;;0.70;;
20110;SDS011;10216;42.658;23.248;2023-04-29T00:08:18;0.70;;;0.70;;
20110;SDS011;10216;42.658;23.248;2023-04-29T00:10:43;0.83;;;0.83;;
20110;SDS011;10216;42.658;23.248;2023-04-29T00:13:09;1.27;;;0.63;;
20110;SDS011;10216;42.658;23.248;2023-04-29T00:15:34;0.80;;;0.70;;
20110;SDS011;10216;42.658;23.248;2023-04-29T00:18:01;3.07;;;0.93;;
20110;SDS011;10216;42.658;23.248;2023-04-29T00:20:26;1.03;;;0.90;;
20110;SDS011;10216;42.658;23.248;2023-04-29T00:22:52;1.17;;;1.07;;
20110;SDS011;10216;42.658;23.248;2023-04-29T00:25:17;1.67;;;1.17;;
20110;SDS011;10216;42.658;23.248;2023-04-29T00:27:42;1.30;;;0.83;;
20110;SDS011;10216;42.658;23.248;2023-04-29T00:30:08;0.70;;;0.70;;
20110;SDS011;10216;42.658;23.248;2023-04-29T00:32:33;6.23;;;1.00;;
20110;SDS011;10216;42.658;23.248;2023-04-29T00:34:58;1.23;;;0.93;;
20110;SDS011;10216;42.658;23.248;2023-04-29T00:37:24;1.17;;;1.10;;
20110;SDS011;10216;42.658;23.248;2023-04-29T00:39:49;0.80;;;0.80;;
20110;SDS011;10216;42.658;23.248;2023-04-29T00:42:14;1.27;;;0.93;;
20110;SDS011;10216;42.658;23.248;2023-04-29T00:44:39;2.00;;;0.90;;
20110;SDS011;10216;42.658;23.248;2023-04-29T00:47:05;1.20;;;1.00;;
20110;SDS011;10216;42.658;23.248;2023-04-29T00:49:35;1.57;;;1.27;;
20110;SDS011;10216;42.658;23.248;2023-04-29T00:52:00;2.60;;;1.30;;
20110;SDS011;10216;42.658;23.248;2023-04-29T00:54:26;0.93;;;0.90;;
20110;SDS011;10216;42.658;23.248;2023-04-29T00:56:51;1.03;;;0.90;;
20110;SDS011;10216;42.658;23.248;2023-04-29T00:59:17;0.70;;;0.70;;
20110;SDS011;10216;42.658;23.248;2023-04-29T01:01:42;0.87;;;0.87;;
20110;SDS011;10216;42.658;23.248;2023-04-29T01:04:08;2.57;;;0.87;;
20110;SDS011;10216;42.658;23.248;2023-04-29T01:06:44;2.40;;;1.13;;
20110;SDS011;10216;42.658;23.248;2023-04-29T01:11:52;1.13;;;1.03;;
20110;SDS011;10216;42.658;23.248;2023-04-29T01:14:19;0.90;;;0.90;;
20110;SDS011;10216;42.658;23.248;2023-04-29T01:16:51;1.20;;;0.97;;
20110;SDS011;10216;42.658;23.248;2023-04-29T01:21:48;0.90;;;0.90;;
20110;SDS011;10216;42.658;23.248;2023-04-29T01:24:14;0.50;;;0.50;;
20110;SDS011;10216;42.658;23.248;2023-04-29T01:26:40;3.30;;;0.87;;
20110;SDS011;10216;42.658;23.248;2023-04-29T01:37:09;0.43;;;0.33;;
20110;SDS011;10216;42.658;23.248;2023-04-29T01:39:44;0.30;;;0.30;;
20110;SDS011;10216;42.658;23.248;2023-04-29T01:42:14;1.07;;;0.97;;
20110;SDS011;10216;42.658;23.248;2023-04-29T01:44:42;4.13;;;1.03;;
20110;SDS011;10216;42.658;23.248;2023-04-29T01:47:08;1.40;;;0.93;;
20110;SDS011;10216;42.658;23.248;2023-04-29T01:49:34;0.43;;;0.43;;
20110;SDS011;10216;42.658;23.248;2023-04-29T01:52:01;0.30;;;0.30;;
20110;SDS011;10216;42.658;23.248;2023-04-29T01:54:27;0.13;;;0.13;;
20110;SDS011;10216;42.658;23.248;2023-04-29T01:56:52;0.90;;;0.57;;
20110;SDS011;10216;42.658;23.248;2023-04-29T01:59:18;0.60;;;0.20;;
20110;SDS011;10216;42.658;23.248;2023-04-29T02:01:43;0.10;;;0.10;;
20110;SDS011;10216;42.658;23.248;2023-04-29T02:04:09;1.00;;;1.00;;
20110;SDS011;10216;42.658;23.248;2023-04-29T02:06:34;0.10;;;0.10;;
20110;SDS011;10216;42.658;23.248;2023-04-29T02:08:59;0.80;;;0.80;;
20110;SDS011;10216;42.658;23.248;2023-04-29T02:11:24;0.30;;;0.30;;
20110;SDS011;10216;42.658;23.248;2023-04-29T02:13:50;0.20;;;0.20;;
20110;SDS011;10216;42.658;23.248;2023-04-29T02:16:15;0.20;;;0.20;;
20110;SDS011;10216;42.658;23.248;2023-04-29T02:18:41;0.73;;;0.73;;
20110;SDS011;10216;42.658;23.248;2023-04-29T02:21:06;0.40;;;0.40;;
20110;SDS011;10216;42.658;23.248;2023-04-29T02:23:32;0.20;;;0.20;;
20110;SDS011;10216;42.658;23.248;2023-04-29T02:25:57;0.43;;;0.43;;
20110;SDS011;10216;42.658;23.248;2023-04-29T02:28:23;0.83;;;0.83;;
20110;SDS011;10216;42.658;23.248;2023-04-29T02:30:48;0.40;;;0.40;;
20110;SDS011;10216;42.658;23.248;2023-04-29T02:33:14;0.20;;;0.20;;
20110;SDS011;10216;42.658;23.248;2023-04-29T02:35:39;0.80;;;0.80;;
20110;SDS011;10216;42.658;23.248;2023-04-29T02:38:04;0.67;;;0.60;;
20110;SDS011;10216;42.658;23.248;2023-04-29T02:40:29;0.40;;;0.40;;
20110;SDS011;10216;42.658;23.248;2023-04-29T02:42:55;0.67;;;0.27;;
20110;SDS011;10216;42.658;23.248;2023-04-29T02:45:20;0.83;;;0.73;;
20110;SDS011;10216;42.658;23.248;2023-04-29T02:47:46;0.47;;;0.47;;
20110;SDS011;10216;42.658;23.248;2023-04-29T02:50:11;0.87;;;0.57;;
20110;SDS011;10216;42.658;23.248;2023-04-29T02:52:37;2.53;;;0.30;;
20110;SDS011;10216;42.658;23.248;2023-04-29T02:55:02;0.43;;;0.43;;
20110;SDS011;10216;42.658;23.248;2023-04-29T02:57:27;0.47;;;0.47;;
20110;SDS011;10216;42.658;23.248;2023-04-29T02:59:53;0.50;;;0.50;;
20110;SDS011;10216;42.658;23.248;2023-04-29T03:02:19;1.53;;;0.40;;
20110;SDS011;10216;42.658;23.248;2023-04-29T03:04:44;1.13;;;0.73;;
20110;SDS011;10216;42.658;23.248;2023-04-29T03:07:09;0.30;;;0.30;;
20110;SDS011;10216;42.658;23.248;2023-04-29T03:09:34;1.60;;;0.47;;
20110;SDS011;10216;42.658;23.248;2023-04-29T03:12:00;1.90;;;0.70;;
20110;SDS011;10216;42.658;23.248;2023-04-29T03:14:26;0.17;;;0.17;;
20110;SDS011;10216;42.658;23.248;2023-04-29T03:16:52;0.40;;;0.40;;
20110;SDS011;10216;42.658;23.248;2023-04-29T03:19:17;0.43;;;0.43;;
20110;SDS011;10216;42.658;23.248;2023-04-29T03:21:42;0.50;;;0.50;;
20110;SDS011;10216;42.658;23.248;2023-04-29T03:24:08;0.57;;;0.57;;
20110;SDS011;10216;42.658;23.248;2023-04-29T03:26:33;0.30;;;0.30;;
20110;SDS011;10216;42.658;23.248;2023-04-29T03:28:58;0.20;;;0.20;;
20110;SDS011;10216;42.658;23.248;2023-04-29T03:31:24;0.13;;;0.13;;
20110;SDS011;10216;42.658;23.248;2023-04-29T03:33:51;0.53;;;0.53;;
20110;SDS011;10216;42.658;23.248;2023-04-29T03:36:17;0.27;;;0.27;;
20110;SDS011;10216;42.658;23.248;2023-04-29T03:38:42;0.67;;;0.63;;
20110;SDS011;10216;42.658;23.248;2023-04-29T03:41:08;1.27;;;0.90;;
20110;SDS011;10216;42.658;23.248;2023-04-29T03:43:33;0.57;;;0.57;;
20110;SDS011;10216;42.658;23.248;2023-04-29T03:45:58;0.30;;;0.30;;
20110;SDS011;10216;42.658;23.248;2023-04-29T03:48:24;0.20;;;0.20;;
20110;SDS011;10216;42.658;23.248;2023-04-29T03:50:49;0.20;;;0.20;;
20110;SDS011;10216;42.658;23.248;2023-04-29T03:53:15;0.20;;;0.20;;
20110;SDS011;10216;42.658;23.248;2023-04-29T03:55:41;1.17;;;0.60;;
20110;SDS011;10216;42.658;23.248;2023-04-29T03:58:06;0.97;;;0.97;;
20110;SDS011;10216;42.658;23.248;2023-04-29T04:00:32;1.80;;;1.23;;
20110;SDS011;10216;42.658;23.248;2023-04-29T04:02:58;4.53;;;0.70;;
20110;SDS011;10216;42.658;23.248;2023-04-29T04:05:23;0.40;;;0.40;;
20110;SDS011;10216;42.658;23.248;2023-04-29T04:07:52;0.60;;;0.60;;
20110;SDS011;10216;42.658;23.248;2023-04-29T04:10:17;0.77;;;0.57;;
20110;SDS011;10216;42.658;23.248;2023-04-29T04:12:43;1.77;;;1.23;;
20110;SDS011;10216;42.658;23.248;2023-04-29T04:15:08;1.57;;;1.30;;
20110;SDS011;10216;42.658;23.248;2023-04-29T04:17:34;1.60;;;1.33;;
20110;SDS011;10216;42.658;23.248;2023-04-29T04:19:59;1.73;;;1.40;;
20110;SDS011;10216;42.658;23.248;2023-04-29T04:22:24;1.67;;;1.53;;
20110;SDS011;10216;42.658;23.248;2023-04-29T04:24:49;1.37;;;1.27;;
20110;SDS011;10216;42.658;23.248;2023-04-29T04:27:15;2.80;;;1.87;;
20110;SDS011;10216;42.658;23.248;2023-04-29T04:29:40;6.97;;;3.03;;
20110;SDS011;10216;42.658;23.248;2023-04-29T04:32:05;2.57;;;1.73;;
20110;SDS011;10216;42.658;23.248;2023-04-29T04:34:30;2.63;;;1.77;;
20110;SDS011;10216;42.658;23.248;2023-04-29T04:36:56;2.13;;;1.77;;
20110;SDS011;10216;42.658;23.248;2023-04-29T04:39:21;1.53;;;1.23;;
20110;SDS011;10216;42.658;23.248;2023-04-29T04:41:47;4.40;;;2.60;;
20110;SDS011;10216;42.658;23.248;2023-04-29T04:44:12;7.50;;;4.53;;
20110;SDS011;10216;42.658;23.248;2023-04-29T04:46:38;7.13;;;3.40;;
20110;SDS011;10216;42.658;23.248;2023-04-29T04:49:03;6.43;;;3.70;;
20110;SDS011;10216;42.658;23.248;2023-04-29T04:51:28;6.53;;;3.27;;
20110;SDS011;10216;42.658;23.248;2023-04-29T04:53:54;4.80;;;3.57;;
20110;SDS011;10216;42.658;23.248;2023-04-29T04:56:19;5.93;;;3.70;;
20110;SDS011;10216;42.658;23.248;2023-04-29T04:58:44;4.30;;;3.27;;
20110;SDS011;10216;42.658;23.248;2023-04-29T05:01:09;5.90;;;3.33;;
20110;SDS011;10216;42.658;23.248;2023-04-29T05:03:35;3.50;;;2.63;;
20110;SDS011;10216;42.658;23.248;2023-04-29T05:06:00;5.33;;;2.87;;
20110;SDS011;10216;42.658;23.248;2023-04-29T05:08:26;4.27;;;2.77;;
20110;SDS011;10216;42.658;23.248;2023-04-29T05:10:51;3.70;;;2.93;;
20110;SDS011;10216;42.658;23.248;2023-04-29T05:13:16;6.97;;;4.33;;
20110;SDS011;10216;42.658;23.248;2023-04-29T05:15:42;7.53;;;4.43;;
20110;SDS011;10216;42.658;23.248;2023-04-29T05:18:08;5.57;;;3.37;;
20110;SDS011;10216;42.658;23.248;2023-04-29T05:20:33;3.53;;;2.40;;
20110;SDS011;10216;42.658;23.248;2023-04-29T05:22:59;4.27;;;3.03;;
20110;SDS011;10216;42.658;23.248;2023-04-29T05:25:24;5.63;;;3.80;;
20110;SDS011;10216;42.658;23.248;2023-04-29T05:27:49;8.73;;;4.60;;
20110;SDS011;10216;42.658;23.248;2023-04-29T05:30:15;4.70;;;2.77;;
20110;SDS011;10216;42.658;23.248;2023-04-29T05:32:41;3.57;;;2.63;;
20110;SDS011;10216;42.658;23.248;2023-04-29T05:35:07;8.10;;;3.77;;
20110;SDS011;10216;42.658;23.248;2023-04-29T05:37:32;4.10;;;2.77;;
20110;SDS011;10216;42.658;23.248;2023-04-29T05:39:58;7.00;;;3.90;;
20110;SDS011;10216;42.658;23.248;2023-04-29T05:42:23;4.40;;;3.37;;
20110;SDS011;10216;42.658;23.248;2023-04-29T05:44:48;6.93;;;3.43;;
20110;SDS011;10216;42.658;23.248;2023-04-29T05:47:14;3.17;;;2.43;;
20110;SDS011;10216;42.658;23.248;2023-04-29T05:49:39;6.70;;;3.30;;
20110;SDS011;10216;42.658;23.248;2023-04-29T05:52:04;4.03;;;2.70;;
20110;SDS011;10216;42.658;23.248;2023-04-29T05:54:31;6.60;;;3.10;;
20110;SDS011;10216;42.658;23.248;2023-04-29T05:56:56;4.13;;;3.20;;
20110;SDS011;10216;42.658;23.248;2023-04-29T05:59:21;4.97;;;3.57;;
20110;SDS011;10216;42.658;23.248;2023-04-29T06:01:46;5.27;;;2.90;;
20110;SDS011;10216;42.658;23.248;2023-04-29T06:04:12;7.10;;;2.63;;
20110;SDS011;10216;42.658;23.248;2023-04-29T06:06:37;3.60;;;2.90;;
20110;SDS011;10216;42.658;23.248;2023-04-29T06:09:02;4.53;;;3.00;;
20110;SDS011;10216;42.658;23.248;2023-04-29T06:11:28;3.07;;;2.53;;
20110;SDS011;10216;42.658;23.248;2023-04-29T06:13:53;4.00;;;3.10;;
20110;SDS011;10216;42.658;23.248;2023-04-29T06:16:18;3.73;;;2.17;;
20110;SDS011;10216;42.658;23.248;2023-04-29T06:18:44;3.90;;;2.70;;
20110;SDS011;10216;42.658;23.248;2023-04-29T06:21:09;2.53;;;2.03;;
20110;SDS011;10216;42.658;23.248;2023-04-29T06:23:35;5.37;;;2.57;;
20110;SDS011;10216;42.658;23.248;2023-04-29T06:26:00;3.40;;;2.90;;
20110;SDS011;10216;42.658;23.248;2023-04-29T06:28:25;7.10;;;2.87;;
20110;SDS011;10216;42.658;23.248;2023-04-29T06:30:51;4.83;;;2.37;;
20110;SDS011;10216;42.658;23.248;2023-04-29T06:33:16;4.57;;;2.93;;
20110;SDS011;10216;42.658;23.248;2023-04-29T06:35:41;5.30;;;2.87;;
20110;SDS011;10216;42.658;23.248;2023-04-29T06:38:07;3.10;;;2.67;;
20110;SDS011;10216;42.658;23.248;2023-04-29T06:40:32;4.53;;;2.60;;
20110;SDS011;10216;42.658;23.248;2023-04-29T06:42:58;5.60;;;3.10;;
20110;SDS011;10216;42.658;23.248;2023-04-29T06:45:23;3.37;;;2.37;;
20110;SDS011;10216;42.658;23.248;2023-04-29T06:47:49;7.30;;;3.70;;
20110;SDS011;10216;42.658;23.248;2023-04-29T06:50:15;5.47;;;2.80;;
20110;SDS011;10216;42.658;23.248;2023-04-29T06:52:40;4.17;;;2.97;;
20110;SDS011;10216;42.658;23.248;2023-04-29T06:55:05;3.37;;;2.50;;
20110;SDS011;10216;42.658;23.248;2023-04-29T06:57:31;3.73;;;3.37;;
20110;SDS011;10216;42.658;23.248;2023-04-29T06:59:56;3.53;;;2.97;;
20110;SDS011;10216;42.658;23.248;2023-04-29T07:02:22;3.17;;;2.70;;
20110;SDS011;10216;42.658;23.248;2023-04-29T07:04:47;4.73;;;2.47;;
20110;SDS011;10216;42.658;23.248;2023-04-29T07:07:13;4.43;;;2.77;;
20110;SDS011;10216;42.658;23.248;2023-04-29T07:09:39;5.30;;;2.97;;
20110;SDS011;10216;42.658;23.248;2023-04-29T07:12:04;5.90;;;3.23;;
20110;SDS011;10216;42.658;23.248;2023-04-29T07:14:29;3.43;;;2.87;;
20110;SDS011;10216;42.658;23.248;2023-04-29T07:16:55;3.90;;;3.07;;
20110;SDS011;10216;42.658;23.248;2023-04-29T07:19:21;5.17;;;3.40;;
20110;SDS011;10216;42.658;23.248;2023-04-29T07:21:46;4.17;;;3.30;;
20110;SDS011;10216;42.658;23.248;2023-04-29T07:24:11;3.83;;;3.13;;
20110;SDS011;10216;42.658;23.248;2023-04-29T07:26:36;4.33;;;3.23;;
20110;SDS011;10216;42.658;23.248;2023-04-29T07:29:02;5.63;;;3.13;;
20110;SDS011;10216;42.658;23.248;2023-04-29T07:31:27;5.27;;;3.00;;
20110;SDS011;10216;42.658;23.248;2023-04-29T07:33:53;8.23;;;3.87;;
20110;SDS011;10216;42.658;23.248;2023-04-29T07:36:19;5.43;;;3.20;;
20110;SDS011;10216;42.658;23.248;2023-04-29T07:38:44;5.70;;;2.70;;
20110;SDS011;10216;42.658;23.248;2023-04-29T07:41:09;3.97;;;2.60;;
20110;SDS011;10216;42.658;23.248;2023-04-29T07:43:34;2.43;;;2.20;;
20110;SDS011;10216;42.658;23.248;2023-04-29T07:46:00;3.03;;;2.73;;
20110;SDS011;10216;42.658;23.248;2023-04-29T07:48:25;4.83;;;3.00;;
20110;SDS011;10216;42.658;23.248;2023-04-29T07:50:50;3.70;;;2.80;;
20110;SDS011;10216;42.658;23.248;2023-04-29T07:53:17;4.23;;;3.20;;
20110;SDS011;10216;42.658;23.248;2023-04-29T07:55:43;3.57;;;2.83;;
20110;SDS011;10216;42.658;23.248;2023-04-29T07:58:08;5.37;;;3.10;;
20110;SDS011;10216;42.658;23.248;2023-04-29T08:00:35;4.17;;;2.60;;
20110;SDS011;10216;42.658;23.248;2023-04-29T08:03:01;2.90;;;2.67;;
20110;SDS011;10216;42.658;23.248;2023-04-29T08:05:26;2.80;;;2.60;;
20110;SDS011;10216;42.658;23.248;2023-04-29T08:07:52;3.50;;;2.63;;
20110;SDS011;10216;42.658;23.248;2023-04-29T08:10:19;6.13;;;2.67;;
20110;SDS011;10216;42.658;23.248;2023-04-29T08:12:49;3.07;;;2.50;;
20110;SDS011;10216;42.658;23.248;2023-04-29T08:15:14;7.83;;;3.17;;
20110;SDS011;10216;42.658;23.248;2023-04-29T08:17:40;2.73;;;2.50;;
20110;SDS011;10216;42.658;23.248;2023-04-29T08:20:06;4.77;;;2.73;;
20110;SDS011;10216;42.658;23.248;2023-04-29T08:22:32;4.00;;;3.10;;
20110;SDS011;10216;42.658;23.248;2023-04-29T08:24:57;3.67;;;2.97;;
20110;SDS011;10216;42.658;23.248;2023-04-29T08:27:23;5.00;;;3.40;;
20110;SDS011;10216;42.658;23.248;2023-04-29T08:29:48;7.37;;;2.90;;
20110;SDS011;10216;42.658;23.248;2023-04-29T08:32:13;4.97;;;2.90;;
20110;SDS011;10216;42.658;23.248;2023-04-29T08:34:39;4.07;;;3.00;;
20110;SDS011;10216;42.658;23.248;2023-04-29T08:37:05;3.80;;;3.17;;
20110;SDS011;10216;42.658;23.248;2023-04-29T08:39:30;4.00;;;3.03;;
20110;SDS011;10216;42.658;23.248;2023-04-29T08:41:56;3.93;;;2.80;;
20110;SDS011;10216;42.658;23.248;2023-04-29T08:44:22;4.27;;;2.97;;
20110;SDS011;10216;42.658;23.248;2023-04-29T08:46:47;3.90;;;2.37;;
20110;SDS011;10216;42.658;23.248;2023-04-29T08:49:13;3.13;;;2.70;;
20110;SDS011;10216;42.658;23.248;2023-04-29T08:51:38;3.70;;;2.67;;
20110;SDS011;10216;42.658;23.248;2023-04-29T08:54:04;2.63;;;2.43;;
20110;SDS011;10216;42.658;23.248;2023-04-29T08:56:30;4.13;;;2.53;;
20110;SDS011;10216;42.658;23.248;2023-04-29T08:58:55;2.77;;;2.50;;
20110;SDS011;10216;42.658;23.248;2023-04-29T09:01:22;2.60;;;2.17;;
20110;SDS011;10216;42.658;23.248;2023-04-29T09:06:17;2.60;;;2.40;;
20110;SDS011;10216;42.658;23.248;2023-04-29T09:08:43;2.87;;;2.33;;
20110;SDS011;10216;42.658;23.248;2023-04-29T09:11:08;3.67;;;2.43;;
20110;SDS011;10216;42.658;23.248;2023-04-29T09:13:35;3.20;;;2.60;;
20110;SDS011;10216;42.658;23.248;2023-04-29T09:16:00;3.53;;;2.60;;
20110;SDS011;10216;42.658;23.248;2023-04-29T09:21:29;5.40;;;2.73;;
20110;SDS011;10216;42.658;23.248;2023-04-29T09:23:53;4.23;;;2.90;;
20110;SDS011;10216;42.658;23.248;2023-04-29T09:26:19;5.27;;;2.50;;
20110;SDS011;10216;42.658;23.248;2023-04-29T09:28:45;5.07;;;2.67;;
20110;SDS011;10216;42.658;23.248;2023-04-29T09:31:11;4.03;;;2.50;;
20110;SDS011;10216;42.658;23.248;2023-04-29T09:33:50;3.27;;;2.70;;
20110;SDS011;10216;42.658;23.248;2023-04-29T09:38:59;3.17;;;2.83;;
20110;SDS011;10216;42.658;23.248;2023-04-29T09:41:25;3.20;;;2.90;;
20110;SDS011;10216;42.658;23.248;2023-04-29T09:44:03;2.63;;;2.43;;
20110;SDS011;10216;42.658;23.248;2023-04-29T09:46:32;3.17;;;2.60;;
20110;SDS011;10216;42.658;23.248;2023-04-29T09:48:57;3.00;;;2.70;;
20110;SDS011;10216;42.658;23.248;2023-04-29T09:51:25;3.37;;;3.00;;
20110;SDS011;10216;42.658;23.248;2023-04-29T09:53:50;3.00;;;2.70;;
20110;SDS011;10216;42.658;23.248;2023-04-29T09:56:16;3.13;;;2.77;;
20110;SDS011;10216;42.658;23.248;2023-04-29T09:58:41;4.63;;;2.87;;
20110;SDS011;10216;42.658;23.248;2023-04-29T10:01:08;2.70;;;2.40;;
20110;SDS011;10216;42.658;23.248;2023-04-29T10:03:36;3.03;;;2.27;;
20110;SDS011;10216;42.658;23.248;2023-04-29T10:06:03;2.87;;;2.37;;
20110;SDS011;10216;42.658;23.248;2023-04-29T10:08:29;3.40;;;2.90;;
20110;SDS011;10216;42.658;23.248;2023-04-29T10:10:55;4.83;;;2.33;;
20110;SDS011;10216;42.658;23.248;2023-04-29T10:13:23;3.37;;;2.03;;
20110;SDS011;10216;42.658;23.248;2023-04-29T10:15:51;3.30;;;2.60;;
20110;SDS011;10216;42.658;23.248;2023-04-29T10:18:24;4.07;;;2.57;;
20110;SDS011;10216;42.658;23.248;2023-04-29T10:20:50;2.97;;;2.33;;
20110;SDS011;10216;42.658;23.248;2023-04-29T10:23:16;2.67;;;2.47;;
20110;SDS011;10216;42.658;23.248;2023-04-29T10:25:42;3.60;;;2.40;;
20110;SDS011;10216;42.658;23.248;2023-04-29T10:28:09;2.43;;;2.00;;
20110;SDS011;10216;42.658;23.248;2023-04-29T10:30:38;6.30;;;3.07;;
20110;SDS011;10216;42.658;23.248;2023-04-29T10:33:04;3.10;;;2.50;;
20110;SDS011;10216;42.658;23.248;2023-04-29T10:35:30;4.60;;;2.57;;
20110;SDS011;10216;42.658;23.248;2023-04-29T10:37:56;2.70;;;2.37;;
20110;SDS011;10216;42.658;23.248;2023-04-29T10:40:26;4.67;;;2.87;;
20110;SDS011;10216;42.658;23.248;2023-04-29T10:42:52;9.50;;;4.33;;
20110;SDS011;10216;42.658;23.248;2023-04-29T10:45:22;5.60;;;3.00;;
20110;SDS011;10216;42.658;23.248;2023-04-29T10:50:38;2.73;;;1.93;;
20110;SDS011;10216;42.658;23.248;2023-04-29T10:53:06;2.87;;;2.13;;
20110;SDS011;10216;42.658;23.248;2023-04-29T10:55:34;4.03;;;2.30;;
20110;SDS011;10216;42.658;23.248;2023-04-29T10:57:59;3.67;;;2.03;;
20110;SDS011;10216;42.658;23.248;2023-04-29T11:00:25;4.23;;;1.83;;
20110;SDS011;10216;42.658;23.248;2023-04-29T11:02:52;3.07;;;1.60;;
20110;SDS011;10216;42.658;23.248;2023-04-29T11:05:18;1.83;;;1.60;;
20110;SDS011;10216;42.658;23.248;2023-04-29T11:08:07;3.67;;;1.67;;
20110;SDS011;10216;42.658;23.248;2023-04-29T11:10:38;1.80;;;1.50;;
20110;SDS011;10216;42.658;23.248;2023-04-29T11:13:24;1.53;;;1.13;;
20110;SDS011;10216;42.658;23.248;2023-04-29T11:15:53;4.10;;;1.20;;
20110;SDS011;10216;42.658;23.248;2023-04-29T11:18:27;1.70;;;1.60;;
20110;SDS011;10216;42.658;23.248;2023-04-29T11:21:14;2.17;;;1.00;;
20110;SDS011;10216;42.658;23.248;2023-04-29T11:23:38;1.93;;;1.10;;
20110;SDS011;10216;42.658;23.248;2023-04-29T11:26:09;0.80;;;0.80;;
20110;SDS011;10216;42.658;23.248;2023-04-29T11:28:34;3.20;;;1.60;;
20110;SDS011;10216;42.658;23.248;2023-04-29T11:30:59;2.50;;;1.30;;
20110;SDS011;10216;42.658;23.248;2023-04-29T11:33:25;1.33;;;1.10;;
20110;SDS011;10216;42.658;23.248;2023-04-29T11:35:54;1.23;;;0.87;;
20110;SDS011;10216;42.658;23.248;2023-04-29T11:38:26;1.23;;;1.03;;
20110;SDS011;10216;42.658;23.248;2023-04-29T11:40:51;1.43;;;1.03;;
20110;SDS011;10216;42.658;23.248;2023-04-29T11:43:19;1.00;;;0.87;;
20110;SDS011;10216;42.658;23.248;2023-04-29T11:45:45;2.30;;;0.80;;
20110;SDS011;10216;42.658;23.248;2023-04-29T11:48:16;3.03;;;1.07;;
20110;SDS011;10216;42.658;23.248;2023-04-29T11:50:41;0.73;;;0.70;;
20110;SDS011;10216;42.658;23.248;2023-04-29T11:53:07;0.97;;;0.93;;
20110;SDS011;10216;42.658;23.248;2023-04-29T11:55:32;2.93;;;1.33;;
20110;SDS011;10216;42.658;23.248;2023-04-29T11:57:58;0.80;;;0.80;;
20110;SDS011;10216;42.658;23.248;2023-04-29T12:00:23;1.10;;;1.00;;
20110;SDS011;10216;42.658;23.248;2023-04-29T12:02:49;0.97;;;0.80;;
20110;SDS011;10216;42.658;23.248;2023-04-29T12:05:14;0.70;;;0.70;;
20110;SDS011;10216;42.658;23.248;2023-04-29T12:07:41;0.70;;;0.70;;
20110;SDS011;10216;42.658;23.248;2023-04-29T12:10:10;1.90;;;0.97;;
20110;SDS011;10216;42.658;23.248;2023-04-29T12:12:36;1.63;;;0.90;;
20110;SDS011;10216;42.658;23.248;2023-04-29T12:15:04;1.17;;;0.70;;
20110;SDS011;10216;42.658;23.248;2023-04-29T12:17:30;0.60;;;0.60;;
20110;SDS011;10216;42.658;23.248;2023-04-29T12:19:55;1.73;;;0.87;;
20110;SDS011;10216;42.658;23.248;2023-04-29T12:22:21;0.70;;;0.70;;
20110;SDS011;10216;42.658;23.248;2023-04-29T12:24:46;1.27;;;0.80;;
20110;SDS011;10216;42.658;23.248;2023-04-29T12:27:14;1.17;;;1.07;;
20110;SDS011;10216;42.658;23.248;2023-04-29T12:29:40;1.53;;;0.60;;
20110;SDS011;10216;42.658;23.248;2023-04-29T12:32:05;1.37;;;0.90;;
20110;SDS011;10216;42.658;23.248;2023-04-29T12:34:31;1.67;;;0.90;;
20110;SDS011;10216;42.658;23.248;2023-04-29T12:37:00;1.43;;;0.70;;
20110;SDS011;10216;42.658;23.248;2023-04-29T12:39:26;0.77;;;0.77;;
20110;SDS011;10216;42.658;23.248;2023-04-29T12:41:56;0.60;;;0.60;;
20110;SDS011;10216;42.658;23.248;2023-04-29T12:44:22;0.97;;;0.80;;
20110;SDS011;10216;42.658;23.248;2023-04-29T12:46:47;0.73;;;0.73;;
20110;SDS011;10216;42.658;23.248;2023-04-29T12:49:12;1.97;;;0.93;;
20110;SDS011;10216;42.658;23.248;2023-04-29T12:51:38;0.93;;;0.70;;
20110;SDS011;10216;42.658;23.248;2023-04-29T12:54:03;0.60;;;0.60;;
20110;SDS011;10216;42.658;23.248;2023-04-29T12:56:30;0.50;;;0.50;;
20110;SDS011;10216;42.658;23.248;2023-04-29T12:58:55;1.37;;;1.00;;
20110;SDS011;10216;42.658;23.248;2023-04-29T13:01:21;0.87;;;0.57;;
20110;SDS011;10216;42.658;23.248;2023-04-29T13:03:46;0.60;;;0.60;;
20110;SDS011;10216;42.658;23.248;2023-04-29T13:06:13;0.63;;;0.60;;
20110;SDS011;10216;42.658;23.248;2023-04-29T13:08:38;1.37;;;0.77;;
20110;SDS011;10216;42.658;23.248;2023-04-29T13:11:03;0.70;;;0.70;;
20110;SDS011;10216;42.658;23.248;2023-04-29T13:13:29;2.47;;;0.90;;
20110;SDS011;10216;42.658;23.248;2023-04-29T13:15:54;0.70;;;0.70;;
20110;SDS011;10216;42.658;23.248;2023-04-29T13:18:20;0.50;;;0.50;;
20110;SDS011;10216;42.658;23.248;2023-04-29T13:20:45;0.30;;;0.30;;
20110;SDS011;10216;42.658;23.248;2023-04-29T13:23:10;1.20;;;0.60;;
20110;SDS011;10216;42.658;23.248;2023-04-29T13:25:38;0.60;;;0.60;;
20110;SDS011;10216;42.658;23.248;2023-04-29T13:28:04;0.63;;;0.63;;
20110;SDS011;10216;42.658;23.248;2023-04-29T13:30:31;0.60;;;0.60;;
20110;SDS011;10216;42.658;23.248;2023-04-29T13:32:56;0.60;;;0.60;;
20110;SDS011;10216;42.658;23.248;2023-04-29T13:35:22;0.73;;;0.73;;
20110;SDS011;10216;42.658;23.248;2023-04-29T13:37:47;0.50;;;0.50;;
20110;SDS011;10216;42.658;23.248;2023-04-29T13:40:13;1.40;;;0.73;;
20110;SDS011;10216;42.658;23.248;2023-04-29T13:42:38;0.67;;;0.67;;
20110;SDS011;10216;42.658;23.248;2023-04-29T13:45:03;0.80;;;0.80;;
20110;SDS011;10216;42.658;23.248;2023-04-29T13:47:29;0.70;;;0.67;;
20110;SDS011;10216;42.658;23.248;2023-04-29T13:49:54;0.77;;;0.60;;
20110;SDS011;10216;42.658;23.248;2023-04-29T13:52:19;0.57;;;0.57;;
20110;SDS011;10216;42.658;23.248;2023-04-29T13:54:47;0.77;;;0.77;;
20110;SDS011;10216;42.658;23.248;2023-04-29T13:57:12;0.70;;;0.70;;
20110;SDS011;10216;42.658;23.248;2023-04-29T13:59:37;1.20;;;1.10;;
20110;SDS011;10216;42.658;23.248;2023-04-29T14:02:02;0.90;;;0.60;;
20110;SDS011;10216;42.658;23.248;2023-04-29T14:13:00;0.77;;;0.70;;
20110;SDS011;10216;42.658;23.248;2023-04-29T14:15:27;1.60;;;0.73;;
20110;SDS011;10216;42.658;23.248;2023-04-29T14:17:52;0.83;;;0.70;;
20110;SDS011;10216;42.658;23.248;2023-04-29T14:38:24;2.90;;;1.10;;
20110;SDS011;10216;42.658;23.248;2023-04-29T14:43:25;0.57;;;0.53;;
20110;SDS011;10216;42.658;23.248;2023-04-29T14:45:50;0.90;;;0.90;;
20110;SDS011;10216;42.658;23.248;2023-04-29T14:48:15;0.80;;;0.80;;
20110;SDS011;10216;42.658;23.248;2023-04-29T14:50:40;1.97;;;1.10;;
20110;SDS011;10216;42.658;23.248;2023-04-29T14:53:05;1.20;;;0.87;;
20110;SDS011;10216;42.658;23.248;2023-04-29T14:55:32;1.50;;;0.90;;
20110;SDS011;10216;42.658;23.248;2023-04-29T14:57:57;1.43;;;1.10;;
20110;SDS011;10216;42.658;23.248;2023-04-29T15:00:23;0.90;;;0.90;;
20110;SDS011;10216;42.658;23.248;2023-04-29T15:02:48;0.87;;;0.70;;
20110;SDS011;10216;42.658;23.248;2023-04-29T15:05:14;1.00;;;0.60;;
20110;SDS011;10216;42.658;23.248;2023-04-29T15:07:39;0.77;;;0.77;;
20110;SDS011;10216;42.658;23.248;2023-04-29T15:10:05;0.77;;;0.77;;
20110;SDS011;10216;42.658;23.248;2023-04-29T15:12:33;0.73;;;0.73;;
20110;SDS011;10216;42.658;23.248;2023-04-29T15:14:58;1.23;;;0.83;;
20110;SDS011;10216;42.658;23.248;2023-04-29T15:17:23;0.90;;;0.90;;
20110;SDS011;10216;42.658;23.248;2023-04-29T15:19:49;1.23;;;1.00;;